Details From LIRN - Naples Capodichino
To LIRQ - Firenze
Flight Number -
Tags decoded
Created
Modified
Stats Distance 227 nm / 421 km
Max Altitude 0 ft / 0 m
Waypoints 5
Social Downloads 5
Likes 0
Share VATSIM

Download

Looking for another format? Having issues loading an existing format? Contact us
Advertisement - Login to hide

Notes

Requested: LIRN ERIKA UZ910 NIKMA LIRQ Flight Level: 30000 ft

Route

LIRN ERIKA UZ910 NIKMA LIRQ

ID Type Via Altitude Latitude Longitude Leg Dist Tot Dist Heading (true) Name
O LIRN APT - 0 ft / 0 m 40.88603˚ 14.29078˚ - 0 nm - Naples Capodichino
ERIKA FIX - 0 ft / 0 m 41.62278˚ 14.03111˚ 45 nm 45 nm 345° / 345° -
VELIM FIX UZ910 (AWY-HI) 0 ft / 0 m 42.14222˚ 13.26528˚ 46 nm 92 nm 313° / 312° -
NIKMA FIX UZ910 (AWY-HI) 0 ft / 0 m 43.06639˚ 12.18028˚ 73 nm 165 nm 320° / 319° -
O LIRQ APT - 0 ft / 0 m 43.80998˚ 11.20512˚ 61 nm 227 nm 317° / 316° Firenze

Altitude Profile

Advertisement - Login to hide

Weather


0- 5 10 15 20 25 30 35+ Temperature / ° C

Clouds and Precipitation
Forecast for 2017-12-18 18:00 UTC. Updated 2 hours ago

Ground ~20,000 ft ~40,000 ft Winds

LIRN

Details ICAO LIRN (NAP)
Name Naples Capodichino
Region Italy
Timezone Europe/Rome (UTC+1.0)
Stats Elevation 294 ft / 90 m (AMSL)
Location 40.886032° 14.290783°
Runways 1
Magnetic Variation 3.309° E

METAR

LIRN 181820Z 04005KT 9999 FEW050 05/M02 Q1023 NOSIG

Decode

TAF

TAF LIRN 181700Z 1818/1918 04008KT CAVOK

Decode

Departure Runways

ID Width Length Bearing (true) Bearing (mag) Surface Threshold Offset Overrun Length
06 148 ft / 45 m 8,612 ft / 2,625 m 58.03° 54.72° Asphalt 1,309 ft / 399 m 0 ft / 0 m
24 148 ft / 45 m 8,612 ft / 2,625 m 238.05° 234.74° Asphalt 624 ft / 190 m 0 ft / 0 m

LIRQ

Details ICAO LIRQ (FLR)
Name Firenze
Region Italy
Timezone Europe/Rome (UTC+1.0)
Stats Elevation 142 ft / 43 m (AMSL)
Location 43.809984° 11.205118°
Runways 1
Magnetic Variation 2.876° E

METAR

LIRQ 181820Z 19002KT 9999 BKN085 04/M00 Q1023

Decode

TAF

TAF LIRQ 181700Z 1818/1918 VRB05KT CAVOK

Decode

Destination Runways

ID Width Length Bearing (true) Bearing (mag) Surface Threshold Offset Overrun Length
05 98 ft / 30 m 5,420 ft / 1,652 m 48.52° 45.64° Asphalt 492 ft / 150 m 0 ft / 0 m
23 98 ft / 30 m 5,420 ft / 1,652 m 228.53° 225.65° Asphalt 2,287 ft / 697 m 0 ft / 0 m

Approach Navaids

Runway Type Ident Frequency Range Bearing (true) Bearing (mag) Slope Elevation
05 Localiser IFZ 110.30 MHz 18 nm / 33 km 48.10° 45.22° - 131 ft / 40 m (AMSL)
05 Glidescope IFZ 110.30 MHz 10 nm / 19 km 47.00° 44.12° 3.00° 144 ft / 44 m (AMSL)
05 DME IFZ 110.30 MHz 18 nm / 33 km - - - 144 ft / 44 m (AMSL)

Popular Alternatives